createdAt,value
2023-04-09T00:08:00.451Z,3.20
2023-04-09T00:18:05.653Z,2.77
2023-04-09T00:28:11.741Z,4.30
2023-04-09T00:38:16.767Z,3.87
2023-04-09T00:48:20.443Z,3.83
2023-04-09T00:58:25.606Z,4.80
2023-04-09T01:08:40.403Z,4.00
2023-04-09T01:18:52.144Z,1.77
2023-04-09T01:28:58.563Z,3.80
2023-04-09T01:39:03.649Z,2.30
2023-04-09T01:49:10.683Z,2.17
2023-04-09T01:59:15.625Z,4.67
2023-04-09T02:09:22.782Z,2.73
2023-04-09T02:19:26.589Z,1.70
2023-04-09T02:29:31.893Z,2.87
2023-04-09T02:39:35.663Z,3.93
2023-04-09T02:49:40.755Z,2.40
2023-04-09T02:59:44.467Z,3.60
2023-04-09T03:09:49.502Z,3.80
2023-04-09T03:19:53.200Z,3.60
2023-04-09T03:29:58.446Z,2.10
2023-04-09T03:40:02.393Z,5.13
2023-04-09T03:50:08.836Z,3.77
2023-04-09T04:00:13.483Z,5.20
2023-04-09T04:10:18.679Z,3.30
2023-04-09T04:20:22.407Z,2.67
2023-04-09T04:30:27.362Z,3.90
2023-04-09T04:40:30.924Z,3.97
2023-04-09T04:50:36.083Z,2.03
2023-04-09T05:00:39.715Z,3.07
2023-04-09T05:10:46.783Z,3.50
2023-04-09T05:20:50.734Z,5.27
2023-04-09T05:30:55.790Z,3.27
2023-04-09T05:40:59.457Z,3.43
2023-04-09T05:51:04.895Z,3.00
2023-04-09T06:01:08.758Z,5.27
2023-04-09T06:11:14.572Z,3.63
2023-04-09T06:21:18.455Z,3.60
2023-04-09T06:31:23.550Z,5.53
2023-04-09T06:41:28.167Z,6.13
2023-04-09T06:51:33.235Z,3.00
2023-04-09T07:01:39.105Z,4.47
2023-04-09T07:11:44.121Z,6.97
2023-04-09T07:21:47.732Z,5.10
2023-04-09T07:31:52.890Z,4.73
2023-04-09T07:41:57.440Z,7.83
2023-04-09T07:52:02.545Z,8.30
2023-04-09T08:02:06.545Z,8.00
2023-04-09T08:12:12.141Z,4.80
2023-04-09T08:22:16.055Z,6.07
2023-04-09T08:32:21.438Z,6.43
2023-04-09T08:42:27.068Z,6.00
2023-04-09T08:52:34.495Z,6.70
2023-04-09T09:02:39.376Z,6.37
2023-04-09T09:12:44.850Z,6.97
2023-04-09T09:22:57.070Z,5.80
2023-04-09T09:33:09.438Z,4.47
2023-04-09T09:43:14.628Z,4.37
2023-04-09T09:53:24.829Z,4.87
2023-04-09T10:03:32.097Z,4.27
2023-04-09T10:13:40.788Z,7.83
2023-04-09T10:23:51.141Z,6.47
2023-04-09T10:34:04.844Z,4.47
2023-04-09T10:44:21.192Z,4.03
2023-04-09T10:54:49.008Z,4.90
2023-04-09T11:05:07.082Z,3.40
2023-04-09T11:15:18.806Z,3.43
2023-04-09T11:25:23.911Z,3.17
2023-04-09T11:35:29.256Z,3.30
2023-04-09T11:45:33.900Z,4.40
2023-04-09T11:55:39.057Z,3.55
2023-04-09T12:05:50.968Z,3.13
2023-04-09T12:15:59.067Z,3.28
2023-04-09T12:26:03.918Z,3.75
2023-04-09T12:36:09.342Z,2.55
2023-04-09T12:46:13.694Z,3.03
2023-04-09T12:56:18.927Z,1.85
2023-04-09T13:06:24.973Z,2.20
2023-04-09T13:16:30.082Z,3.35
2023-04-09T13:26:34.102Z,3.22
2023-04-09T13:36:39.113Z,2.78
2023-04-09T13:46:43.034Z,2.25
2023-04-09T13:56:49.676Z,2.53
2023-04-09T14:06:53.389Z,3.03
2023-04-09T14:16:58.450Z,3.60
2023-04-09T14:27:02.815Z,1.90
2023-04-09T14:37:07.863Z,1.70
2023-04-09T14:47:11.649Z,1.73
2023-04-09T14:57:16.631Z,1.27
2023-04-09T15:07:20.902Z,2.45
2023-04-09T15:17:29.857Z,1.27
2023-04-09T15:27:33.857Z,1.50
2023-04-09T15:37:38.997Z,0.77
2023-04-09T15:47:43.914Z,1.42
2023-04-09T15:57:48.983Z,1.20
2023-04-09T16:07:52.965Z,3.35
2023-04-09T16:17:58.151Z,1.95
2023-04-09T16:28:01.837Z,1.65
2023-04-09T16:38:07.741Z,1.38
2023-04-09T16:48:12.836Z,1.35
2023-04-09T16:58:17.972Z,1.60
2023-04-09T17:08:24.387Z,0.75
2023-04-09T17:18:29.714Z,1.40
2023-04-09T17:28:33.444Z,1.77
2023-04-09T17:38:38.444Z,1.48
2023-04-09T17:48:42.709Z,3.53
2023-04-09T17:58:47.864Z,3.05
2023-04-09T18:08:52.457Z,1.47
2023-04-09T18:18:57.805Z,2.67
2023-04-09T18:29:01.836Z,2.33
2023-04-09T18:39:07.015Z,2.73
2023-04-09T18:49:11.242Z,1.90
2023-04-09T18:59:28.408Z,1.10
2023-04-09T19:09:33.496Z,2.43
2023-04-09T19:19:38.678Z,2.87
2023-04-09T19:29:43.770Z,3.60
2023-04-09T19:39:49.215Z,1.97
2023-04-09T19:49:53.127Z,2.83
2023-04-09T19:59:58.264Z,2.87
2023-04-09T20:10:02.142Z,1.83
2023-04-09T20:20:08.904Z,2.20
2023-04-09T20:30:13.586Z,3.30
2023-04-09T20:40:19.026Z,1.47
2023-04-09T20:50:22.807Z,2.70
2023-04-09T21:00:28.583Z,0.60
2023-04-09T21:10:32.315Z,2.27
2023-04-09T21:20:37.477Z,1.03
2023-04-09T21:30:42.335Z,1.63
2023-04-09T21:40:48.339Z,2.73
2023-04-09T21:50:52.203Z,2.37
2023-04-09T22:00:57.402Z,2.33
2023-04-09T22:11:01.093Z,1.67
2023-04-09T22:21:07.186Z,3.87
2023-04-09T22:31:11.198Z,2.20
2023-04-09T22:41:17.522Z,2.60
2023-04-09T22:51:21.583Z,3.23
2023-04-09T23:01:27.351Z,3.10
2023-04-09T23:11:31.145Z,2.87
2023-04-09T23:21:36.489Z,2.10
2023-04-09T23:31:40.357Z,1.97
2023-04-09T23:41:45.408Z,1.97
2023-04-09T23:51:49.091Z,1.67
